sensor_id;sensor_type;location;lat;lon;timestamp;temperature;humidity
46340;DHT22;47273;49.274;8.708;2022-10-16T04:01:57;16.70;99.90
46340;DHT22;47273;49.274;8.708;2022-10-16T04:04:23;16.70;99.90
46340;DHT22;47273;49.274;8.708;2022-10-16T04:06:50;16.70;99.90
46340;DHT22;47273;49.274;8.708;2022-10-16T04:09:16;16.70;99.90
46340;DHT22;47273;49.274;8.708;2022-10-16T04:11:44;16.70;99.90
46340;DHT22;47273;49.274;8.708;2022-10-16T04:14:10;16.70;99.90
46340;DHT22;47273;49.274;8.708;2022-10-16T04:16:35;16.70;99.90
46340;DHT22;47273;49.274;8.708;2022-10-16T04:19:01;16.70;99.90
46340;DHT22;47273;49.274;8.708;2022-10-16T04:21:26;16.70;99.90
46340;DHT22;47273;49.274;8.708;2022-10-16T04:23:52;16.70;99.90
46340;DHT22;47273;49.274;8.708;2022-10-16T04:26:18;16.70;99.90
46340;DHT22;47273;49.274;8.708;2022-10-16T04:28:43;16.70;99.90
46340;DHT22;47273;49.274;8.708;2022-10-16T04:31:09;16.70;99.90
46340;DHT22;47273;49.274;8.708;2022-10-16T04:33:35;16.60;99.90
46340;DHT22;47273;49.274;8.708;2022-10-16T04:36:01;16.60;99.90
46340;DHT22;47273;49.274;8.708;2022-10-16T04:38:27;16.70;99.90
46340;DHT22;47273;49.274;8.708;2022-10-16T04:40:54;16.70;99.90
46340;DHT22;47273;49.274;8.708;2022-10-16T04:43:20;16.70;99.90
46340;DHT22;47273;49.274;8.708;2022-10-16T04:45:46;16.70;99.90
46340;DHT22;47273;49.274;8.708;2022-10-16T04:48:12;16.70;99.90
46340;DHT22;47273;49.274;8.708;2022-10-16T04:50:37;16.70;99.90
46340;DHT22;47273;49.274;8.708;2022-10-16T04:53:03;16.70;99.90
46340;DHT22;47273;49.274;8.708;2022-10-16T04:55:29;16.70;99.90
46340;DHT22;47273;49.274;8.708;2022-10-16T04:57:55;16.70;99.90
46340;DHT22;47273;49.274;8.708;2022-10-16T05:00:20;16.60;99.90
46340;DHT22;47273;49.274;8.708;2022-10-16T05:02:49;16.60;99.90
46340;DHT22;47273;49.274;8.708;2022-10-16T05:05:14;16.70;99.90
46340;DHT22;47273;49.274;8.708;2022-10-16T05:07:40;16.60;99.90
46340;DHT22;47273;49.274;8.708;2022-10-16T05:10:06;16.60;99.90
46340;DHT22;47273;49.274;8.708;2022-10-16T05:12:32;16.70;99.90
46340;DHT22;47273;49.274;8.708;2022-10-16T05:14:57;16.60;99.90
46340;DHT22;47273;49.274;8.708;2022-10-16T05:17:24;16.60;99.90
46340;DHT22;47273;49.274;8.708;2022-10-16T05:19:51;16.60;99.90
46340;DHT22;47273;49.274;8.708;2022-10-16T05:22:16;16.60;99.90
46340;DHT22;47273;49.274;8.708;2022-10-16T05:24:42;16.60;99.90
46340;DHT22;47273;49.274;8.708;2022-10-16T05:27:07;16.60;99.90
46340;DHT22;47273;49.274;8.708;2022-10-16T05:29:33;16.60;99.90
46340;DHT22;47273;49.274;8.708;2022-10-16T05:31:59;16.60;99.90
46340;DHT22;47273;49.274;8.708;2022-10-16T05:34:26;16.60;99.90
46340;DHT22;47273;49.274;8.708;2022-10-16T05:36:52;16.50;99.90
46340;DHT22;47273;49.274;8.708;2022-10-16T05:39:18;16.50;99.90
46340;DHT22;47273;49.274;8.708;2022-10-16T05:41:44;16.50;99.90
46340;DHT22;47273;49.274;8.708;2022-10-16T05:44:10;16.50;99.90
46340;DHT22;47273;49.274;8.708;2022-10-16T05:46:36;16.50;99.90
46340;DHT22;47273;49.274;8.708;2022-10-16T05:49:02;16.50;99.90
46340;DHT22;47273;49.274;8.708;2022-10-16T05:51:28;16.50;99.90
46340;DHT22;47273;49.274;8.708;2022-10-16T05:53:53;16.60;99.90
46340;DHT22;47273;49.274;8.708;2022-10-16T05:56:19;16.50;99.90
46340;DHT22;47273;49.274;8.708;2022-10-16T05:58:45;16.50;99.90
46340;DHT22;47273;49.274;8.708;2022-10-16T06:01:16;16.50;99.90
46340;DHT22;47273;49.274;8.708;2022-10-16T06:03:42;16.50;99.90
46340;DHT22;47273;49.274;8.708;2022-10-16T06:06:15;16.50;99.90
46340;DHT22;47273;49.274;8.708;2022-10-16T06:08:43;16.50;99.90
46340;DHT22;47273;49.274;8.708;2022-10-16T06:11:19;16.50;99.90
46340;DHT22;47273;49.274;8.708;2022-10-16T06:13:44;16.50;99.90
46340;DHT22;47273;49.274;8.708;2022-10-16T06:16:12;16.50;99.90
46340;DHT22;47273;49.274;8.708;2022-10-16T06:18:38;16.50;99.90
46340;DHT22;47273;49.274;8.708;2022-10-16T06:21:08;16.50;99.90
46340;DHT22;47273;49.274;8.708;2022-10-16T06:23:34;16.50;99.90
46340;DHT22;47273;49.274;8.708;2022-10-16T06:26:11;16.50;99.90
46340;DHT22;47273;49.274;8.708;2022-10-16T06:28:37;16.50;99.90
46340;DHT22;47273;49.274;8.708;2022-10-16T06:31:04;16.50;99.90
46340;DHT22;47273;49.274;8.708;2022-10-16T06:33:31;16.50;99.90
46340;DHT22;47273;49.274;8.708;2022-10-16T06:36:05;16.50;99.90
46340;DHT22;47273;49.274;8.708;2022-10-16T06:38:32;16.50;99.90
46340;DHT22;47273;49.274;8.708;2022-10-16T06:40:58;16.50;99.90
46340;DHT22;47273;49.274;8.708;2022-10-16T06:43:24;16.60;99.90
46340;DHT22;47273;49.274;8.708;2022-10-16T06:45:53;16.60;99.90
46340;DHT22;47273;49.274;8.708;2022-10-16T06:48:20;16.70;99.90
46340;DHT22;47273;49.274;8.708;2022-10-16T06:50:59;16.60;99.90
46340;DHT22;47273;49.274;8.708;2022-10-16T06:53:31;16.70;99.90
46340;DHT22;47273;49.274;8.708;2022-10-16T06:55:57;16.60;99.90
46340;DHT22;47273;49.274;8.708;2022-10-16T06:58:23;16.60;99.90
46340;DHT22;47273;49.274;8.708;2022-10-16T07:00:55;16.70;99.90
46340;DHT22;47273;49.274;8.708;2022-10-16T07:03:21;16.70;99.90
46340;DHT22;47273;49.274;8.708;2022-10-16T07:05:47;16.70;99.90
46340;DHT22;47273;49.274;8.708;2022-10-16T07:08:12;16.80;99.90
46340;DHT22;47273;49.274;8.708;2022-10-16T07:10:38;16.80;99.90
46340;DHT22;47273;49.274;8.708;2022-10-16T07:13:03;16.80;99.90
46340;DHT22;47273;49.274;8.708;2022-10-16T07:15:29;16.80;99.90
46340;DHT22;47273;49.274;8.708;2022-10-16T07:17:55;16.90;99.90
46340;DHT22;47273;49.274;8.708;2022-10-16T07:20:21;16.90;99.90
46340;DHT22;47273;49.274;8.708;2022-10-16T07:22:46;16.90;99.90
46340;DHT22;47273;49.274;8.708;2022-10-16T07:25:12;16.90;99.90
46340;DHT22;47273;49.274;8.708;2022-10-16T07:27:38;17.00;99.90
46340;DHT22;47273;49.274;8.708;2022-10-16T07:30:04;17.00;99.90
46340;DHT22;47273;49.274;8.708;2022-10-16T07:32:31;17.10;99.90
46340;DHT22;47273;49.274;8.708;2022-10-16T07:34:57;17.10;99.90
46340;DHT22;47273;49.274;8.708;2022-10-16T07:37:22;17.20;99.90
46340;DHT22;47273;49.274;8.708;2022-10-16T07:39:48;17.20;99.90
46340;DHT22;47273;49.274;8.708;2022-10-16T07:42:13;17.20;99.90
46340;DHT22;47273;49.274;8.708;2022-10-16T07:44:39;17.20;99.90
46340;DHT22;47273;49.274;8.708;2022-10-16T07:47:06;17.30;99.90
46340;DHT22;47273;49.274;8.708;2022-10-16T07:49:32;17.30;99.90
46340;DHT22;47273;49.274;8.708;2022-10-16T07:51:58;17.30;99.90
46340;DHT22;47273;49.274;8.708;2022-10-16T07:54:23;17.40;99.90
46340;DHT22;47273;49.274;8.708;2022-10-16T07:56:49;17.40;99.90
46340;DHT22;47273;49.274;8.708;2022-10-16T07:59:15;17.50;99.90
46340;DHT22;47273;49.274;8.708;2022-10-16T08:01:49;17.50;99.90
46340;DHT22;47273;49.274;8.708;2022-10-16T08:04:15;17.50;99.90
46340;DHT22;47273;49.274;8.708;2022-10-16T08:06:43;17.50;99.90
46340;DHT22;47273;49.274;8.708;2022-10-16T08:09:09;17.60;99.90
46340;DHT22;47273;49.274;8.708;2022-10-16T08:11:48;17.60;99.90
46340;DHT22;47273;49.274;8.708;2022-10-16T08:14:14;17.60;99.90
46340;DHT22;47273;49.274;8.708;2022-10-16T08:16:41;17.60;99.90
46340;DHT22;47273;49.274;8.708;2022-10-16T08:19:07;17.70;99.90
46340;DHT22;47273;49.274;8.708;2022-10-16T08:21:33;17.70;99.90
46340;DHT22;47273;49.274;8.708;2022-10-16T08:23:58;17.80;99.90
46340;DHT22;47273;49.274;8.708;2022-10-16T08:26:29;17.80;99.90
46340;DHT22;47273;49.274;8.708;2022-10-16T08:28:55;17.80;99.90
46340;DHT22;47273;49.274;8.708;2022-10-16T08:31:24;17.80;99.90
46340;DHT22;47273;49.274;8.708;2022-10-16T08:33:50;17.80;99.90
46340;DHT22;47273;49.274;8.708;2022-10-16T08:36:17;17.80;99.90
46340;DHT22;47273;49.274;8.708;2022-10-16T08:38:51;17.90;99.90
46340;DHT22;47273;49.274;8.708;2022-10-16T08:41:30;17.90;99.90
46340;DHT22;47273;49.274;8.708;2022-10-16T08:44:12;17.90;99.90
46340;DHT22;47273;49.274;8.708;2022-10-16T08:46:44;17.90;99.90
46340;DHT22;47273;49.274;8.708;2022-10-16T08:49:15;18.00;99.90
46340;DHT22;47273;49.274;8.708;2022-10-16T08:51:42;18.00;99.90
46340;DHT22;47273;49.274;8.708;2022-10-16T08:56:39;18.10;99.90
46340;DHT22;47273;49.274;8.708;2022-10-16T08:59:09;18.10;99.90
46340;DHT22;47273;49.274;8.708;2022-10-16T09:01:45;18.10;99.90
46340;DHT22;47273;49.274;8.708;2022-10-16T09:04:29;18.10;99.90
46340;DHT22;47273;49.274;8.708;2022-10-16T09:07:29;18.20;99.90
46340;DHT22;47273;49.274;8.708;2022-10-16T09:12:45;18.20;99.90
46340;DHT22;47273;49.274;8.708;2022-10-16T09:18:15;18.30;99.90
46340;DHT22;47273;49.274;8.708;2022-10-16T09:21:08;18.30;99.90
46340;DHT22;47273;49.274;8.708;2022-10-16T09:23:36;18.30;99.90
46340;DHT22;47273;49.274;8.708;2022-10-16T09:26:04;18.40;99.90
46340;DHT22;47273;49.274;8.708;2022-10-16T09:28:31;18.40;99.90
46340;DHT22;47273;49.274;8.708;2022-10-16T09:30:57;18.40;99.90
46340;DHT22;47273;49.274;8.708;2022-10-16T09:33:28;18.50;99.90
46340;DHT22;47273;49.274;8.708;2022-10-16T09:35:57;18.50;99.90
46340;DHT22;47273;49.274;8.708;2022-10-16T09:38:44;18.60;99.90
46340;DHT22;47273;49.274;8.708;2022-10-16T09:43:56;18.80;99.90
46340;DHT22;47273;49.274;8.708;2022-10-16T09:46:29;19.00;99.90
46340;DHT22;47273;49.274;8.708;2022-10-16T09:52:14;19.30;99.90
46340;DHT22;47273;49.274;8.708;2022-10-16T09:55:14;19.40;99.90
46340;DHT22;47273;49.274;8.708;2022-10-16T09:57:50;19.70;99.90
46340;DHT22;47273;49.274;8.708;2022-10-16T10:00:23;19.80;99.90
46340;DHT22;47273;49.274;8.708;2022-10-16T10:05:57;20.00;99.90
46340;DHT22;47273;49.274;8.708;2022-10-16T10:08:24;20.20;99.90
46340;DHT22;47273;49.274;8.708;2022-10-16T10:10:50;20.40;99.90
46340;DHT22;47273;49.274;8.708;2022-10-16T10:13:22;20.40;99.90
46340;DHT22;47273;49.274;8.708;2022-10-16T10:15:50;20.40;99.90
46340;DHT22;47273;49.274;8.708;2022-10-16T10:18:21;20.40;99.90
46340;DHT22;47273;49.274;8.708;2022-10-16T10:21:00;20.40;99.90
46340;DHT22;47273;49.274;8.708;2022-10-16T10:23:29;20.50;99.90
46340;DHT22;47273;49.274;8.708;2022-10-16T10:32:03;20.80;99.90
46340;DHT22;47273;49.274;8.708;2022-10-16T10:37:45;21.40;99.90
46340;DHT22;47273;49.274;8.708;2022-10-16T10:45:55;21.40;99.90
46340;DHT22;47273;49.274;8.708;2022-10-16T10:51:31;21.50;99.90
46340;DHT22;47273;49.274;8.708;2022-10-16T11:06:00;22.40;99.90
46340;DHT22;47273;49.274;8.708;2022-10-16T11:08:36;22.40;99.90
46340;DHT22;47273;49.274;8.708;2022-10-16T11:11:31;22.60;99.90
46340;DHT22;47273;49.274;8.708;2022-10-16T11:15:04;22.70;99.90
46340;DHT22;47273;49.274;8.708;2022-10-16T11:18:02;23.00;99.90
46340;DHT22;47273;49.274;8.708;2022-10-16T11:21:06;23.10;99.90
46340;DHT22;47273;49.274;8.708;2022-10-16T11:24:16;23.30;99.90
46340;DHT22;47273;49.274;8.708;2022-10-16T11:26:55;23.60;99.90
46340;DHT22;47273;49.274;8.708;2022-10-16T11:29:27;23.60;99.90
46340;DHT22;47273;49.274;8.708;2022-10-16T11:32:04;23.70;99.90
46340;DHT22;47273;49.274;8.708;2022-10-16T11:34:47;23.60;99.90
46340;DHT22;47273;49.274;8.708;2022-10-16T11:37:19;23.80;99.90
46340;DHT22;47273;49.274;8.708;2022-10-16T11:39:48;24.10;99.90
46340;DHT22;47273;49.274;8.708;2022-10-16T11:42:20;24.30;99.90
46340;DHT22;47273;49.274;8.708;2022-10-16T11:45:02;24.10;99.90
46340;DHT22;47273;49.274;8.708;2022-10-16T11:55:29;23.20;99.90
46340;DHT22;47273;49.274;8.708;2022-10-16T11:58:12;23.20;99.90
46340;DHT22;47273;49.274;8.708;2022-10-16T12:00:52;23.10;99.90
46340;DHT22;47273;49.274;8.708;2022-10-16T12:08:52;22.90;99.90
46340;DHT22;47273;49.274;8.708;2022-10-16T12:19:17;22.50;99.90
46340;DHT22;47273;49.274;8.708;2022-10-16T12:21:44;22.50;99.90
46340;DHT22;47273;49.274;8.708;2022-10-16T12:26:52;22.40;99.90
46340;DHT22;47273;49.274;8.708;2022-10-16T12:29:36;22.50;99.90
46340;DHT22;47273;49.274;8.708;2022-10-16T12:32:05;22.50;99.90
46340;DHT22;47273;49.274;8.708;2022-10-16T12:34:39;22.50;99.90
46340;DHT22;47273;49.274;8.708;2022-10-16T12:37:23;22.40;99.90
46340;DHT22;47273;49.274;8.708;2022-10-16T12:39:52;22.40;99.90
46340;DHT22;47273;49.274;8.708;2022-10-16T12:45:13;22.80;99.90
46340;DHT22;47273;49.274;8.708;2022-10-16T12:47:55;22.80;99.90
46340;DHT22;47273;49.274;8.708;2022-10-16T12:50:31;23.10;99.90
46340;DHT22;47273;49.274;8.708;2022-10-16T12:53:01;23.10;99.90
46340;DHT22;47273;49.274;8.708;2022-10-16T12:55:41;22.90;99.90
46340;DHT22;47273;49.274;8.708;2022-10-16T13:06:38;22.30;99.90
46340;DHT22;47273;49.274;8.708;2022-10-16T13:09:49;22.10;99.90
46340;DHT22;47273;49.274;8.708;2022-10-16T13:20:46;21.70;99.90
46340;DHT22;47273;49.274;8.708;2022-10-16T13:26:57;21.60;99.90
46340;DHT22;47273;49.274;8.708;2022-10-16T13:29:30;21.50;99.90
46340;DHT22;47273;49.274;8.708;2022-10-16T13:31:56;21.40;99.90
46340;DHT22;47273;49.274;8.708;2022-10-16T13:34:28;21.40;99.90
46340;DHT22;47273;49.274;8.708;2022-10-16T13:36:54;21.40;99.90
46340;DHT22;47273;49.274;8.708;2022-10-16T13:39:26;21.30;99.90
46340;DHT22;47273;49.274;8.708;2022-10-16T13:42:26;21.30;99.90
46340;DHT22;47273;49.274;8.708;2022-10-16T13:44:55;21.20;99.90
46340;DHT22;47273;49.274;8.708;2022-10-16T13:47:26;21.20;99.90
46340;DHT22;47273;49.274;8.708;2022-10-16T13:50:10;21.10;99.90
46340;DHT22;47273;49.274;8.708;2022-10-16T13:52:37;21.10;99.90
46340;DHT22;47273;49.274;8.708;2022-10-16T13:55:09;21.10;99.90
46340;DHT22;47273;49.274;8.708;2022-10-16T13:57:35;21.10;99.90
46340;DHT22;47273;49.274;8.708;2022-10-16T14:00:01;21.00;99.90
46340;DHT22;47273;49.274;8.708;2022-10-16T14:02:38;21.00;99.90
46340;DHT22;47273;49.274;8.708;2022-10-16T14:05:08;21.00;99.90
46340;DHT22;47273;49.274;8.708;2022-10-16T14:07:36;21.00;99.90
46340;DHT22;47273;49.274;8.708;2022-10-16T14:10:27;21.00;99.90
46340;DHT22;47273;49.274;8.708;2022-10-16T14:13:06;20.90;99.90
46340;DHT22;47273;49.274;8.708;2022-10-16T14:15:34;20.90;99.90
46340;DHT22;47273;49.274;8.708;2022-10-16T14:18:01;20.90;99.90
46340;DHT22;47273;49.274;8.708;2022-10-16T14:20:29;20.90;99.90
46340;DHT22;47273;49.274;8.708;2022-10-16T14:23:03;20.90;99.90
46340;DHT22;47273;49.274;8.708;2022-10-16T14:25:31;20.90;99.90
46340;DHT22;47273;49.274;8.708;2022-10-16T14:28:23;20.80;99.90
46340;DHT22;47273;49.274;8.708;2022-10-16T14:30:57;20.80;99.90
46340;DHT22;47273;49.274;8.708;2022-10-16T14:36:05;20.70;99.90
46340;DHT22;47273;49.274;8.708;2022-10-16T14:38:37;20.70;99.90
46340;DHT22;47273;49.274;8.708;2022-10-16T14:41:04;20.70;99.90
46340;DHT22;47273;49.274;8.708;2022-10-16T14:43:42;20.70;99.90
46340;DHT22;47273;49.274;8.708;2022-10-16T14:46:21;20.60;99.90
46340;DHT22;47273;49.274;8.708;2022-10-16T14:48:56;20.60;99.90
46340;DHT22;47273;49.274;8.708;2022-10-16T14:51:23;20.60;99.90
46340;DHT22;47273;49.274;8.708;2022-10-16T14:53:49;20.60;99.90
46340;DHT22;47273;49.274;8.708;2022-10-16T14:56:28;20.60;99.90
46340;DHT22;47273;49.274;8.708;2022-10-16T14:58:55;20.60;99.90
46340;DHT22;47273;49.274;8.708;2022-10-16T15:01:21;20.60;99.90
46340;DHT22;47273;49.274;8.708;2022-10-16T15:03:47;20.70;99.90
46340;DHT22;47273;49.274;8.708;2022-10-16T15:06:15;20.70;99.90
46340;DHT22;47273;49.274;8.708;2022-10-16T15:08:41;20.70;99.90
46340;DHT22;47273;49.274;8.708;2022-10-16T15:11:18;20.80;99.90
46340;DHT22;47273;49.274;8.708;2022-10-16T15:13:44;20.80;99.90
46340;DHT22;47273;49.274;8.708;2022-10-16T15:16:15;20.80;99.90
46340;DHT22;47273;49.274;8.708;2022-10-16T15:18:42;20.80;99.90
46340;DHT22;47273;49.274;8.708;2022-10-16T15:21:08;20.90;99.90
46340;DHT22;47273;49.274;8.708;2022-10-16T15:23:37;20.90;99.90
46340;DHT22;47273;49.274;8.708;2022-10-16T15:26:04;20.90;99.90
46340;DHT22;47273;49.274;8.708;2022-10-16T15:28:29;20.80;99.90
46340;DHT22;47273;49.274;8.708;2022-10-16T15:30:56;20.80;99.90
46340;DHT22;47273;49.274;8.708;2022-10-16T15:33:27;20.80;99.90
46340;DHT22;47273;49.274;8.708;2022-10-16T15:35:58;20.80;99.90
46340;DHT22;47273;49.274;8.708;2022-10-16T15:38:24;20.70;99.90
46340;DHT22;47273;49.274;8.708;2022-10-16T15:40:50;20.70;99.90
46340;DHT22;47273;49.274;8.708;2022-10-16T15:43:16;20.70;99.90
46340;DHT22;47273;49.274;8.708;2022-10-16T15:45:42;20.70;99.90
46340;DHT22;47273;49.274;8.708;2022-10-16T15:48:12;20.60;99.90
46340;DHT22;47273;49.274;8.708;2022-10-16T15:50:39;20.60;99.90
46340;DHT22;47273;49.274;8.708;2022-10-16T15:53:05;20.60;99.90
46340;DHT22;47273;49.274;8.708;2022-10-16T15:55:31;20.60;99.90
46340;DHT22;47273;49.274;8.708;2022-10-16T15:57:57;20.50;99.90
46340;DHT22;47273;49.274;8.708;2022-10-16T16:00:22;20.50;99.90
46340;DHT22;47273;49.274;8.708;2022-10-16T16:02:52;20.50;99.90
46340;DHT22;47273;49.274;8.708;2022-10-16T16:05:18;20.40;99.90
46340;DHT22;47273;49.274;8.708;2022-10-16T16:07:44;20.40;99.90
46340;DHT22;47273;49.274;8.708;2022-10-16T16:10:10;20.40;99.90
46340;DHT22;47273;49.274;8.708;2022-10-16T16:12:37;20.30;99.90
46340;DHT22;47273;49.274;8.708;2022-10-16T16:15:04;20.40;99.90
46340;DHT22;47273;49.274;8.708;2022-10-16T16:17:32;20.30;99.90
46340;DHT22;47273;49.274;8.708;2022-10-16T16:20:01;20.30;99.90
46340;DHT22;47273;49.274;8.708;2022-10-16T16:22:27;20.20;99.90
46340;DHT22;47273;49.274;8.708;2022-10-16T16:24:53;20.20;99.90
46340;DHT22;47273;49.274;8.708;2022-10-16T16:27:19;20.10;99.90
46340;DHT22;47273;49.274;8.708;2022-10-16T16:29:49;20.10;99.90
46340;DHT22;47273;49.274;8.708;2022-10-16T16:32:15;20.00;99.90
46340;DHT22;47273;49.274;8.708;2022-10-16T16:34:41;19.90;99.90
46340;DHT22;47273;49.274;8.708;2022-10-16T16:37:07;19.80;99.90
46340;DHT22;47273;49.274;8.708;2022-10-16T16:39:33;19.80;99.90
46340;DHT22;47273;49.274;8.708;2022-10-16T16:41:58;19.70;99.90
46340;DHT22;47273;49.274;8.708;2022-10-16T16:44:25;19.70;99.90
46340;DHT22;47273;49.274;8.708;2022-10-16T16:46:51;19.70;99.90
46340;DHT22;47273;49.274;8.708;2022-10-16T16:49:16;19.60;99.90
46340;DHT22;47273;49.274;8.708;2022-10-16T16:51:42;19.60;99.90
46340;DHT22;47273;49.274;8.708;2022-10-16T16:54:09;19.60;99.90
46340;DHT22;47273;49.274;8.708;2022-10-16T16:56:35;19.50;99.90
46340;DHT22;47273;49.274;8.708;2022-10-16T16:59:05;19.50;99.90
46340;DHT22;47273;49.274;8.708;2022-10-16T17:01:31;19.50;99.90
46340;DHT22;47273;49.274;8.708;2022-10-16T17:03:57;19.40;99.90
46340;DHT22;47273;49.274;8.708;2022-10-16T17:06:28;19.40;99.90
46340;DHT22;47273;49.274;8.708;2022-10-16T17:09:01;19.40;99.90
46340;DHT22;47273;49.274;8.708;2022-10-16T17:11:28;19.30;99.90
46340;DHT22;47273;49.274;8.708;2022-10-16T17:13:55;19.30;99.90
46340;DHT22;47273;49.274;8.708;2022-10-16T17:16:27;19.30;99.90
46340;DHT22;47273;49.274;8.708;2022-10-16T17:18:53;19.30;99.90
46340;DHT22;47273;49.274;8.708;2022-10-16T17:21:19;19.20;99.90
46340;DHT22;47273;49.274;8.708;2022-10-16T17:23:45;19.20;99.90
46340;DHT22;47273;49.274;8.708;2022-10-16T17:26:17;19.10;99.90
46340;DHT22;47273;49.274;8.708;2022-10-16T17:28:43;19.10;99.90
46340;DHT22;47273;49.274;8.708;2022-10-16T17:31:09;19.10;99.90
46340;DHT22;47273;49.274;8.708;2022-10-16T17:33:35;19.00;99.90
46340;DHT22;47273;49.274;8.708;2022-10-16T17:36:01;19.00;99.90
46340;DHT22;47273;49.274;8.708;2022-10-16T17:38:27;19.00;99.90
46340;DHT22;47273;49.274;8.708;2022-10-16T17:41:10;19.00;99.90
46340;DHT22;47273;49.274;8.708;2022-10-16T17:43:45;18.90;99.90
46340;DHT22;47273;49.274;8.708;2022-10-16T17:46:12;18.90;99.90
46340;DHT22;47273;49.274;8.708;2022-10-16T17:48:43;18.90;99.90
46340;DHT22;47273;49.274;8.708;2022-10-16T17:51:12;18.90;99.90
46340;DHT22;47273;49.274;8.708;2022-10-16T17:53:40;18.90;99.90
46340;DHT22;47273;49.274;8.708;2022-10-16T17:56:11;18.90;99.90
46340;DHT22;47273;49.274;8.708;2022-10-16T17:58:38;18.90;99.90
46340;DHT22;47273;49.274;8.708;2022-10-16T18:01:19;18.90;99.90
46340;DHT22;47273;49.274;8.708;2022-10-16T18:03:55;18.80;99.90
46340;DHT22;47273;49.274;8.708;2022-10-16T18:06:21;18.80;99.90
46340;DHT22;47273;49.274;8.708;2022-10-16T18:08:47;18.80;99.90
46340;DHT22;47273;49.274;8.708;2022-10-16T18:11:13;18.70;99.90
46340;DHT22;47273;49.274;8.708;2022-10-16T18:13:41;18.70;99.90
46340;DHT22;47273;49.274;8.708;2022-10-16T18:16:09;18.70;99.90
46340;DHT22;47273;49.274;8.708;2022-10-16T18:18:39;18.70;99.90
46340;DHT22;47273;49.274;8.708;2022-10-16T18:21:08;18.70;99.90
46340;DHT22;47273;49.274;8.708;2022-10-16T18:23:35;18.70;99.90
46340;DHT22;47273;49.274;8.708;2022-10-16T18:26:03;18.70;99.90
46340;DHT22;47273;49.274;8.708;2022-10-16T18:28:29;18.60;99.90
46340;DHT22;47273;49.274;8.708;2022-10-16T18:30:59;18.60;99.90
46340;DHT22;47273;49.274;8.708;2022-10-16T18:33:27;18.60;99.90
46340;DHT22;47273;49.274;8.708;2022-10-16T18:35:57;18.60;99.90
46340;DHT22;47273;49.274;8.708;2022-10-16T18:38:24;18.50;99.90
46340;DHT22;47273;49.274;8.708;2022-10-16T18:40:50;18.50;99.90
46340;DHT22;47273;49.274;8.708;2022-10-16T18:43:16;18.50;99.90
46340;DHT22;47273;49.274;8.708;2022-10-16T18:46:06;18.50;99.90
46340;DHT22;47273;49.274;8.708;2022-10-16T18:48:32;18.40;99.90
46340;DHT22;47273;49.274;8.708;2022-10-16T18:53:41;18.40;99.90
46340;DHT22;47273;49.274;8.708;2022-10-16T18:56:08;18.40;99.90
46340;DHT22;47273;49.274;8.708;2022-10-16T18:58:34;18.40;99.90
46340;DHT22;47273;49.274;8.708;2022-10-16T19:01:09;18.30;99.90
46340;DHT22;47273;49.274;8.708;2022-10-16T19:03:35;18.30;99.90
46340;DHT22;47273;49.274;8.708;2022-10-16T19:06:05;18.30;99.90
46340;DHT22;47273;49.274;8.708;2022-10-16T19:08:33;18.30;99.90
46340;DHT22;47273;49.274;8.708;2022-10-16T19:11:18;18.30;99.90
46340;DHT22;47273;49.274;8.708;2022-10-16T19:13:45;18.30;99.90
46340;DHT22;47273;49.274;8.708;2022-10-16T19:16:18;18.30;99.90
46340;DHT22;47273;49.274;8.708;2022-10-16T19:18:52;18.20;99.90
46340;DHT22;47273;49.274;8.708;2022-10-16T19:21:37;18.20;99.90
46340;DHT22;47273;49.274;8.708;2022-10-16T19:24:07;18.10;99.90
46340;DHT22;47273;49.274;8.708;2022-10-16T19:26:35;18.10;99.90
46340;DHT22;47273;49.274;8.708;2022-10-16T19:29:04;18.10;99.90
46340;DHT22;47273;49.274;8.708;2022-10-16T19:31:31;18.00;99.90
46340;DHT22;47273;49.274;8.708;2022-10-16T19:34:00;18.00;99.90
46340;DHT22;47273;49.274;8.708;2022-10-16T19:36:30;17.90;99.90
46340;DHT22;47273;49.274;8.708;2022-10-16T19:38:59;18.00;99.90
46340;DHT22;47273;49.274;8.708;2022-10-16T19:41:31;18.00;99.90
46340;DHT22;47273;49.274;8.708;2022-10-16T19:44:04;18.00;99.90
46340;DHT22;47273;49.274;8.708;2022-10-16T19:46:30;17.90;99.90
46340;DHT22;47273;49.274;8.708;2022-10-16T19:49:07;17.90;99.90
46340;DHT22;47273;49.274;8.708;2022-10-16T19:51:33;17.90;99.90
46340;DHT22;47273;49.274;8.708;2022-10-16T19:54:01;17.90;99.90
46340;DHT22;47273;49.274;8.708;2022-10-16T19:56:29;17.80;99.90
46340;DHT22;47273;49.274;8.708;2022-10-16T19:58:57;17.80;99.90
46340;DHT22;47273;49.274;8.708;2022-10-16T20:01:25;17.70;99.90
46340;DHT22;47273;49.274;8.708;2022-10-16T20:03:51;17.70;99.90
46340;DHT22;47273;49.274;8.708;2022-10-16T20:06:18;17.70;99.90
46340;DHT22;47273;49.274;8.708;2022-10-16T20:08:45;17.70;99.90
46340;DHT22;47273;49.274;8.708;2022-10-16T20:11:14;17.60;99.90
46340;DHT22;47273;49.274;8.708;2022-10-16T20:13:40;17.60;99.90
46340;DHT22;47273;49.274;8.708;2022-10-16T20:16:07;17.60;99.90
46340;DHT22;47273;49.274;8.708;2022-10-16T20:18:33;17.50;99.90
46340;DHT22;47273;49.274;8.708;2022-10-16T20:20:59;17.60;99.90
46340;DHT22;47273;49.274;8.708;2022-10-16T20:23:25;17.60;99.90
46340;DHT22;47273;49.274;8.708;2022-10-16T20:25:51;17.60;99.90
46340;DHT22;47273;49.274;8.708;2022-10-16T20:28:19;17.60;99.90
46340;DHT22;47273;49.274;8.708;2022-10-16T20:30:47;17.50;99.90
46340;DHT22;47273;49.274;8.708;2022-10-16T20:33:16;17.50;99.90
46340;DHT22;47273;49.274;8.708;2022-10-16T20:35:44;17.50;99.90
46340;DHT22;47273;49.274;8.708;2022-10-16T20:38:11;17.50;99.90
46340;DHT22;47273;49.274;8.708;2022-10-16T20:40:39;17.50;99.90
46340;DHT22;47273;49.274;8.708;2022-10-16T20:43:06;17.50;99.90
46340;DHT22;47273;49.274;8.708;2022-10-16T20:45:32;17.40;99.90
46340;DHT22;47273;49.274;8.708;2022-10-16T20:47:58;17.40;99.90
46340;DHT22;47273;49.274;8.708;2022-10-16T20:50:27;17.40;99.90
46340;DHT22;47273;49.274;8.708;2022-10-16T20:52:54;17.40;99.90
46340;DHT22;47273;49.274;8.708;2022-10-16T20:55:20;17.30;99.90
46340;DHT22;47273;49.274;8.708;2022-10-16T20:57:46;17.30;99.90
46340;DHT22;47273;49.274;8.708;2022-10-16T21:00:12;17.20;99.90
46340;DHT22;47273;49.274;8.708;2022-10-16T21:02:38;17.20;99.90
46340;DHT22;47273;49.274;8.708;2022-10-16T21:05:04;17.20;99.90
46340;DHT22;47273;49.274;8.708;2022-10-16T21:08:03;17.20;99.90
46340;DHT22;47273;49.274;8.708;2022-10-16T21:10:35;17.20;99.90
46340;DHT22;47273;49.274;8.708;2022-10-16T21:14:00;17.20;99.90
46340;DHT22;47273;49.274;8.708;2022-10-16T21:20:43;17.10;99.90
46340;DHT22;47273;49.274;8.708;2022-10-16T21:33:59;17.10;99.90
46340;DHT22;47273;49.274;8.708;2022-10-16T21:40:28;17.00;99.90
46340;DHT22;47273;49.274;8.708;2022-10-16T21:42:57;17.00;99.90
46340;DHT22;47273;49.274;8.708;2022-10-16T21:45:23;17.00;99.90
46340;DHT22;47273;49.274;8.708;2022-10-16T21:47:48;17.00;99.90